Minsk, Belarus
Current Conditions -  °F | °C
As of 8:00 AM on Wednesday 22 Oct 2014 (Local Time) from UMMM Reporting Station
Overcast Overcast  
Wind Chill: 25°   Ceiling: 800
Heat Index: 34°   Visibility: 6mi
Dew Point: 30°   Wind: 11mph
Humidity: 87%   Direction: 70°ENE
Pressure: 29.83"   Gusts: 18mph
Location:  53.91°N, 27.55°E
Report Text: UMMM 220600Z 07005G08MPS 9999 OVC008 01/M01 Q1010 R12/CLRD60TEMPO 2000 BR RMK QFE737
Loading
Personal Weather Stations






























Interactive Weather Map
Tropical Storm Tracking
New forecast layout! Learn more

10-Day Weather Forecast

Advertisements
Track Severe Weather on mobile